Latest Weather Observations for Lady Elliot Island

IDQ60801

Issued at 9:32 pm EST Wednesday 1 July 2015 (issued every 30 minutes, with the page automatically refreshed every 10 minutes)

About weather observations | Map of weather stations | Latest weather observations for QLD | Other Formats
Station Details ID: 039059 Name: LADY ELLIOT ISLAND Lat: -24.11 Lon: 152.72 Height: 3.6 m
Data from the previous 72 hours. | See also: Recent months at Lady Elliot Island
Date/Time
EST
Temp
°C
App
Temp
°C
Dew
Point
Rel
Hum
%
Delta-T
°C
Wind Press
QNH
hPa
Press
MSL
hPa
Rain
since 9 am
mm
Dir
 
Spd
km/h
Gust
km/h
Spd
kts
Gust
kts
01/09:30pm 21.1 22.9 21.1 100 0.0 ESE 13 17 7 9 1022.0 - 0.0
01/09:00pm 21.0 22.6 20.8 99 0.1 ESE 13 17 7 9 1022.0 1022.0 0.0
01/08:30pm 20.9 22.1 20.7 99 0.1 ESE 15 20 8 11 1021.8 - 0.0
01/08:00pm 20.7 21.4 20.5 99 0.1 ESE 17 20 9 11 1021.6 - 0.0
01/07:30pm 20.8 21.6 20.6 99 0.1 ESE 17 20 9 11 1021.4 - 0.0
01/06:00pm 20.8 21.9 20.5 98 0.2 SE 15 20 8 11 1020.8 1020.8 0.0
01/05:30pm 20.9 22.8 20.6 98 0.2 SSE 11 17 6 9 1020.6 - 0.0
01/05:00pm 21.2 22.9 21.0 99 0.1 SSE 13 19 7 10 1020.4 - 0.0
01/04:30pm 21.4 23.6 21.1 98 0.2 SSE 11 17 6 9 1020.2 - 0.0
01/04:00pm 21.7 23.7 21.5 99 0.1 SSE 13 20 7 11 1020.1 - 0.0
01/03:30pm 21.8 23.4 21.5 98 0.2 SSE 15 20 8 11 1020.3 - 0.0
01/03:00pm 22.1 23.9 21.8 98 0.2 S 15 24 8 13 1020.4 1020.4 0.0
01/02:30pm 22.2 24.1 22.0 99 0.1 S 15 20 8 11 1020.6 - 0.0
01/02:00pm 22.0 23.8 21.8 99 0.1 S 15 20 8 11 1020.7 - 0.0
01/01:30pm 22.4 24.5 22.4 100 0.0 S 15 20 8 11 1020.9 - 0.0
01/01:00pm 22.6 24.6 22.3 98 0.2 S 15 20 8 11 1021.3 - 0.0
01/12:30pm 22.2 23.7 22.0 99 0.1 S 17 24 9 13 1021.8 - 0.0
01/12:00pm 22.5 24.6 22.5 100 0.0 S 15 22 8 12 1022.5 1022.5 0.0
01/11:30am 22.5 24.1 22.2 98 0.2 S 17 24 9 13 1022.9 - 0.0
01/11:00am 22.3 23.8 22.0 98 0.2 S 17 24 9 13 1023.2 - 0.0
01/10:30am 22.3 23.5 22.1 99 0.1 S 19 26 10 14 1023.4 - 0.0
01/10:00am 21.7 22.9 21.5 99 0.1 S 17 26 9 14 1023.5 - 0.0
01/09:30am 22.1 23.7 22.1 100 0.0 S 17 22 9 12 1023.6 - 0.0
01/09:00am 22.0 23.0 21.7 98 0.2 SSE 19 26 10 14 1023.6 1023.6 0.4
01/08:30am 22.0 23.4 21.8 99 0.1 S 17 26 9 14 1023.5 - 0.4
01/08:00am 21.5 23.1 21.5 100 0.0 S 15 22 8 12 1023.2 - 0.4
01/07:30am 21.3 22.7 21.1 99 0.1 SSE 15 22 8 12 1023.2 - 0.4
01/07:00am 20.9 22.2 20.9 100 0.0 SSE 15 22 8 12 1022.9 - 0.4
01/06:30am 20.7 22.3 20.7 100 0.0 SSE 13 19 7 10 1022.7 - 0.4
01/06:00am 20.9 21.7 20.7 99 0.1 SSE 17 22 9 12 1022.5 1022.5 0.4
01/05:30am 20.9 22.2 20.9 100 0.0 SSE 15 20 8 11 1022.2 - 0.4
01/05:00am 21.1 22.0 20.9 99 0.1 SSE 17 22 9 12 1021.9 - 0.4
01/04:30am 20.9 21.7 20.6 98 0.2 SE 17 24 9 13 1021.6 - 0.4
01/04:00am 20.9 21.3 20.7 99 0.1 SE 19 24 10 13 1021.8 - 0.4
01/03:30am 20.8 21.6 20.6 99 0.1 SE 17 24 9 13 1021.8 - 0.4
01/03:00am 20.9 21.7 20.7 99 0.1 SE 17 22 9 12 1022.0 1022.0 0.4
01/01:30am 21.1 22.4 20.9 99 0.1 SSE 15 22 8 12 1022.8 - 0.4
01/01:00am 21.2 22.3 21.2 100 0.0 SE 17 22 9 12 1023.2 - 0.4
01/12:30am 21.2 21.8 21.0 99 0.1 SE 19 26 10 14 1023.6 - 0.4
01/12:00am 21.5 22.6 21.3 99 0.1 SSE 17 24 9 13 1023.7 1023.7 0.4
 
Date/Time
EST
Temp
°C
App
Temp
°C
Dew
Point
Rel
Hum
%
Delta-T
°C
Wind Press
QNH
hPa
Press
MSL
hPa
Rain
since 9 am
mm
Dir
 
Spd
km/h
Gust
km/h
Spd
kts
Gust
kts
30/11:30pm 21.9 23.3 21.9 100 0.0 SE 17 20 9 11 1023.9 - 0.4
30/11:00pm 21.8 22.8 21.8 100 0.0 ESE 19 24 10 13 1024.0 - 0.4
30/10:30pm 21.5 22.7 21.5 100 0.0 ESE 17 22 9 12 1023.8 - 0.4
30/10:00pm 21.5 22.7 21.5 100 0.0 ESE 17 20 9 11 1024.0 - 0.4
30/09:30pm 21.7 22.7 21.7 100 0.0 E 19 24 10 13 1023.7 - 0.4
30/09:00pm 21.7 22.5 21.7 100 0.0 ESE 20 24 11 13 1023.8 1023.8 0.4
30/08:30pm 21.7 22.5 21.7 100 0.0 ESE 20 26 11 14 1023.8 - 0.4
30/08:00pm 21.6 22.3 21.6 100 0.0 ESE 20 30 11 16 1023.7 - 0.4
30/07:30pm 21.6 21.8 21.4 99 0.1 SE 22 28 12 15 1023.6 - 0.4
30/07:00pm 21.4 21.9 21.2 99 0.1 SE 20 28 11 15 1023.5 - 0.4
30/06:30pm 21.2 21.3 21.2 100 0.0 SE 22 28 12 15 1023.3 - 0.4
30/06:00pm 21.0 21.3 20.8 99 0.1 SE 20 28 11 15 1023.0 1023.0 0.4
30/05:30pm 20.8 19.9 20.6 99 0.1 SE 26 32 14 17 1022.6 - 0.4
30/05:00pm 21.3 19.9 21.1 99 0.1 ESE 30 39 16 21 1022.6 - 0.4
30/04:30pm 21.3 19.8 21.0 98 0.2 E 30 37 16 20 1022.6 - 0.4
30/04:00pm 21.1 20.7 20.9 99 0.1 E 24 32 13 17 1022.6 - 0.4
30/03:30pm 21.4 20.5 21.4 100 0.0 ESE 28 39 15 21 1022.5 - 0.4
30/03:00pm 21.9 22.4 21.9 100 0.0 ESE 22 30 12 16 1022.6 1022.6 0.4
30/02:30pm 21.4 20.5 21.4 100 0.0 ESE 28 35 15 19 1022.5 - 0.4
30/02:00pm 21.4 20.3 21.1 98 0.2 SE 28 35 15 19 1022.5 - 0.4
30/01:30pm 20.2 18.6 20.0 99 0.1 SE 28 37 15 20 1022.9 - 0.4
30/01:00pm 19.5 17.2 19.3 99 0.1 SE 30 41 16 22 1023.4 - 0.4
30/12:00pm 20.6 17.9 20.4 99 0.1 ESE 35 48 19 26 1024.2 1024.2 0.2
30/11:30am 20.2 17.7 20.2 100 0.0 ESE 33 46 18 25 1024.6 - 0.0
30/11:00am 21.5 19.7 21.5 100 0.0 ESE 33 43 18 23 1024.6 - 0.0
30/10:30am 21.0 18.2 21.0 100 0.0 ESE 37 46 20 25 1025.0 - 0.0
30/10:00am 21.8 20.2 21.8 100 0.0 ESE 33 43 18 23 1025.3 - 0.0
30/09:30am 21.6 19.7 21.4 99 0.1 ESE 33 41 18 22 1025.4 - 0.0
30/09:00am 21.6 19.7 21.4 99 0.1 ESE 33 43 18 23 1025.5 1025.5 0.4
30/08:30am 21.4 19.2 21.4 100 0.0 ESE 35 44 19 24 1025.3 - 0.4
30/08:00am 21.6 19.4 21.4 99 0.1 ESE 35 44 19 24 1024.9 - 0.4
30/07:30am 21.7 19.6 21.7 100 0.0 ESE 35 44 19 24 1024.3 - 0.4
30/07:00am 21.7 19.5 21.5 99 0.1 ESE 35 43 19 23 1024.1 - 0.4
30/06:30am 21.8 20.0 21.6 99 0.1 ESE 33 43 18 23 1023.9 - 0.4
30/06:00am 21.3 19.6 21.3 100 0.0 ESE 32 41 17 22 1023.8 1023.8 0.4
30/05:30am 21.3 19.5 21.1 99 0.1 ESE 32 41 17 22 1023.5 - 0.4
30/05:00am 21.3 19.6 21.3 100 0.0 ESE 32 41 17 22 1023.4 - 0.4
30/04:30am 21.2 19.4 21.2 100 0.0 ESE 32 37 17 20 1023.5 - 0.4
30/04:00am 21.1 19.9 20.9 99 0.1 ESE 28 35 15 19 1023.8 - 0.4
30/03:30am 21.0 19.8 20.8 99 0.1 ESE 28 37 15 20 1024.1 - 0.4
30/03:00am 21.1 19.9 20.8 98 0.2 ESE 28 33 15 18 1024.5 1024.5 0.4
30/02:30am 21.1 20.0 21.1 100 0.0 ESE 28 35 15 19 1024.7 - 0.4
30/02:00am 21.0 19.9 21.0 100 0.0 ESE 28 33 15 18 1024.8 - 0.4
30/01:30am 21.0 19.7 20.7 98 0.2 ESE 28 35 15 19 1025.0 - 0.4
30/12:30am 21.3 20.2 21.0 98 0.2 ESE 28 35 15 19 1025.3 - 0.4
30/12:00am 21.2 19.8 21.2 100 0.0 ESE 30 35 16 19 1025.4 1025.4 0.4
 
Date/Time
EST
Temp
°C
App
Temp
°C
Dew
Point
Rel
Hum
%
Delta-T
°C
Wind Press
QNH
hPa
Press
MSL
hPa
Rain
since 9 am
mm
Dir
 
Spd
km/h
Gust
km/h
Spd
kts
Gust
kts
29/11:30pm 21.3 20.2 21.1 99 0.1 ESE 28 37 15 20 1025.4 - 0.4
29/11:00pm 21.2 19.4 21.2 100 0.0 ESE 32 39 17 21 1025.6 - 0.4
29/10:30pm 21.2 18.9 21.2 100 0.0 ESE 35 46 19 25 1025.7 - 0.4
29/10:00pm 21.3 18.6 21.3 100 0.0 ESE 37 46 20 25 1025.5 - 0.4
29/09:30pm 21.5 18.8 21.3 99 0.1 ESE 37 48 20 26 1025.7 - 0.4
29/09:00pm 21.6 19.1 21.6 100 0.0 ESE 37 46 20 25 1025.8 1025.8 0.4
29/08:30pm 21.8 19.0 21.8 100 0.0 ESE 39 46 21 25 1025.7 - 0.4
29/08:00pm 21.8 19.3 21.6 99 0.1 ESE 37 48 20 26 1025.6 - 0.4
29/07:30pm 22.0 19.5 21.7 98 0.2 ESE 37 46 20 25 1025.6 - 0.4
29/07:00pm 21.9 20.2 21.7 99 0.1 ESE 33 44 18 24 1025.4 - 0.4
29/06:30pm 21.7 19.8 21.4 98 0.2 ESE 33 41 18 22 1025.2 - 0.4
29/06:00pm 21.8 18.8 19.8 88 1.3 ESE 35 44 19 24 1025.0 1025.0 0.4
29/05:30pm 21.8 16.5 15.2 66 3.9 ESE 37 44 20 24 1024.8 - 0.4
29/05:00pm 21.8 16.6 14.4 63 4.3 ESE 35 43 19 23 1024.4 - 0.4
29/04:30pm 21.9 17.1 14.7 63 4.2 ESE 33 43 18 23 1024.2 - 0.4
29/04:00pm 22.2 17.4 14.5 61 4.5 ESE 33 46 18 25 1024.1 - 0.4
29/03:30pm 22.1 16.9 14.4 61 4.5 ESE 35 43 19 23 1024.0 - 0.4
29/03:00pm 22.6 17.7 14.2 59 4.9 ESE 33 43 18 23 1024.2 1024.2 0.4
29/02:30pm 22.8 17.3 14.8 60 4.7 ESE 37 44 20 24 1024.4 - 0.4
29/02:00pm 23.1 18.6 15.4 62 4.6 ESE 33 43 18 23 1024.6 - 0.4
29/01:30pm 23.0 18.5 15.3 62 4.6 ESE 33 41 18 22 1025.3 - 0.4
29/01:00pm 23.1 18.6 15.0 60 4.8 ESE 32 39 17 21 1025.8 - 0.4
29/12:30pm 23.5 19.2 15.5 60 4.8 ESE 32 39 17 21 1026.2 - 0.4
29/12:00pm 23.2 18.8 15.7 62 4.5 ESE 33 41 18 22 1026.6 1026.6 0.4
29/11:30am 22.9 17.8 15.9 64 4.2 ESE 37 46 20 25 1026.7 - 0.4
29/11:24am 22.7 17.6 15.7 64 4.2 ESE 37 46 20 25 1026.7 - 0.4
29/11:00am 22.4 18.9 16.4 69 3.6 E 30 37 16 20 1027.0 - 0.4
29/10:32am 21.1 17.9 16.4 74 2.8 ESE 28 46 15 25 1027.1 - 0.4
29/10:30am 20.9 18.3 16.9 78 2.4 ESE 26 39 14 21 1027.2 - 0.4
29/10:00am 23.0 18.4 16.2 65 4.1 ESE 35 43 19 23 1027.2 - 0.0
29/09:30am 22.9 18.8 16.5 67 3.9 ESE 33 44 18 24 1027.3 - 0.0
29/09:00am 22.7 17.9 15.7 64 4.2 ESE 35 44 19 24 1027.5 1027.5 0.2
29/08:30am 22.4 17.6 15.5 65 4.1 ESE 35 43 19 23 1027.4 - 0.2
29/08:00am 22.2 17.3 15.3 65 4.1 ESE 35 44 19 24 1027.2 - 0.2
29/07:30am 21.8 17.1 15.9 69 3.5 ESE 35 46 19 25 1026.8 - 0.2
29/07:00am 21.8 15.6 15.0 65 4.0 ESE 41 48 22 26 1026.3 - 0.2
29/06:30am 21.7 16.3 15.1 66 3.9 ESE 37 46 20 25 1026.0 - 0.2
29/06:00am 21.7 15.9 13.9 61 4.5 ESE 37 46 20 25 1025.7 1025.7 0.2
29/05:30am 21.7 16.6 14.9 65 4.0 ESE 35 46 19 25 1025.5 - 0.2
29/05:00am 21.8 16.3 14.6 63 4.2 ESE 37 48 20 26 1025.2 - 0.2
29/04:30am 21.8 16.3 14.8 64 4.1 ESE 37 44 20 24 1025.1 - 0.2
29/04:00am 21.7 16.7 15.1 66 3.9 ESE 35 46 19 25 1025.1 - 0.2
29/03:30am 21.8 17.0 15.6 68 3.7 ESE 35 44 19 24 1025.1 - 0.2
29/03:00am 21.5 16.0 14.7 65 4.0 ESE 37 48 20 26 1025.2 1025.2 0.2
29/02:00am 21.4 15.9 14.7 65 3.9 ESE 37 46 20 25 1025.7 - 0.2
29/01:30am 21.3 16.1 15.6 70 3.4 ESE 37 44 20 24 1025.7 - 0.2
29/01:00am 21.1 16.0 15.7 71 3.2 ESE 37 46 20 25 1026.0 - 0.2
29/12:00am 21.7 15.8 13.5 59 4.7 ESE 37 44 20 24 1026.4 1026.4 0.0
 
Date/Time
EST
Temp
°C
App
Temp
°C
Dew
Point
Rel
Hum
%
Delta-T
°C
Wind Press
QNH
hPa
Press
MSL
hPa
Rain
since 9 am
mm
Dir
 
Spd
km/h
Gust
km/h
Spd
kts
Gust
kts
28/11:30pm 21.7 16.6 13.7 60 4.6 ESE 33 43 18 23 1026.4 - 0.0
28/11:00pm 21.7 16.6 13.7 60 4.6 E 33 41 18 22 1026.7 - 0.0
28/10:30pm 21.8 16.5 13.0 57 5.0 E 33 43 18 23 1026.9 - 0.0
28/10:00pm 21.8 16.4 14.0 61 4.5 ESE 35 44 19 24 1027.0 - 0.0

Other Formats:

Comma delimited format used in spreadsheet applications
http://www.bom.gov.au/fwo/IDQ60801/IDQ60801.94388.axf

JavaScript Object Notation format (JSON) in row-major order
http://www.bom.gov.au/fwo/IDQ60801/IDQ60801.94388.json